Time;durP1;ratioP1;P1;durP2;ratioP2;P2;SDS_P1;SDS_P2;PMS_P1;PMS_P2;Temp;Humidity;BMP_temperature;BMP_pressure;BME280_temperature;BME280_humidity;BME280_pressure;Samples;Min_cycle;Max_cycle;Signal;HPM_P1;HPM_P2
2023/07/22 00:00:46;;;;;;;4.07;2.67;;;15.80;99.90;;;;;;5053826;28;20100;-66
2023/07/22 00:03:11;;;;;;;3.90;2.53;;;15.70;99.90;;;;;;5053639;28;20104;-66
2023/07/22 00:05:37;;;;;;;4.40;2.60;;;15.60;99.90;;;;;;5053628;28;20029;-66
2023/07/22 00:08:03;;;;;;;3.75;2.50;;;15.60;99.90;;;;;;5053693;28;20104;-66
2023/07/22 00:10:29;;;;;;;3.85;2.28;;;15.60;99.90;;;;;;5053607;28;20025;-66
2023/07/22 00:12:54;;;;;;;4.45;2.97;;;15.60;99.90;;;;;;5053510;28;20500;-66
2023/07/22 00:15:22;;;;;;;4.80;2.67;;;15.50;99.90;;;;;;5053511;28;20044;-66
2023/07/22 00:17:48;;;;;;;4.22;3.00;;;15.50;99.90;;;;;;5054068;28;20123;-66
2023/07/22 00:20:16;;;;;;;4.00;2.50;;;15.50;99.90;;;;;;5053566;28;20056;-66
2023/07/22 00:22:42;;;;;;;4.75;2.92;;;15.50;99.90;;;;;;5053420;28;20036;-66
2023/07/22 00:25:10;;;;;;;4.13;2.10;;;15.40;99.90;;;;;;5053480;28;20246;-66
2023/07/22 00:27:40;;;;;;;3.45;2.40;;;15.40;99.90;;;;;;5053699;28;20021;-66
2023/07/22 00:30:09;;;;;;;4.03;2.50;;;15.50;99.90;;;;;;5053417;28;20510;-66
2023/07/22 00:32:38;;;;;;;3.45;2.25;;;15.50;99.90;;;;;;5053219;28;20029;-66
2023/07/22 00:35:07;;;;;;;3.63;2.63;;;15.50;99.90;;;;;;5053641;28;20075;-66
2023/07/22 00:37:33;;;;;;;4.47;3.03;;;15.50;99.90;;;;;;5053594;28;20389;-66
2023/07/22 00:39:58;;;;;;;4.30;2.33;;;15.50;99.90;;;;;;5053184;28;20039;-66
2023/07/22 00:42:25;;;;;;;3.67;2.47;;;15.40;99.90;;;;;;5052846;28;20027;-66
2023/07/22 00:44:50;;;;;;;6.25;2.53;;;15.40;99.90;;;;;;5053243;28;20074;-66
2023/07/22 00:47:17;;;;;;;4.05;2.55;;;15.30;99.90;;;;;;5053191;28;20029;-66
2023/07/22 00:49:44;;;;;;;4.32;2.67;;;15.30;99.90;;;;;;5052045;28;20037;-66
2023/07/22 00:52:10;;;;;;;3.40;2.30;;;15.30;99.90;;;;;;5053095;28;20392;-66
2023/07/22 00:54:35;;;;;;;3.53;2.50;;;15.30;99.90;;;;;;5053311;28;20112;-66
2023/07/22 00:57:01;;;;;;;6.13;2.80;;;15.30;99.90;;;;;;5053671;28;20112;-66
2023/07/22 00:59:27;;;;;;;4.28;2.78;;;15.30;99.90;;;;;;5052978;28;20068;-66
2023/07/22 01:01:53;;;;;;;3.97;2.33;;;15.40;99.90;;;;;;5053075;28;20029;-66
2023/07/22 01:04:22;;;;;;;4.03;2.70;;;15.40;99.90;;;;;;5051964;28;20028;-66
2023/07/22 01:06:49;;;;;;;7.70;2.78;;;15.40;99.90;;;;;;5034013;28;20082;-66
2023/07/22 01:09:14;;;;;;;6.53;2.83;;;15.40;99.90;;;;;;5032991;28;20025;-66
2023/07/22 01:11:40;;;;;;;4.47;2.58;;;15.40;99.90;;;;;;5032822;28;20381;-66
2023/07/22 01:14:07;;;;;;;5.40;3.17;;;15.40;99.90;;;;;;5032223;28;20485;-66
2023/07/22 01:16:34;;;;;;;4.75;2.38;;;15.40;99.90;;;;;;5032534;28;20120;-66
2023/07/22 01:19:00;;;;;;;4.18;2.75;;;15.40;99.90;;;;;;5032293;28;20052;-66
2023/07/22 01:21:26;;;;;;;3.88;2.47;;;15.40;99.90;;;;;;5032521;28;20522;-66
2023/07/22 01:23:53;;;;;;;3.78;2.53;;;15.40;99.90;;;;;;5031773;28;20013;-66
2023/07/22 01:26:20;;;;;;;5.93;2.70;;;15.30;99.90;;;;;;5033496;28;20025;-66
2023/07/22 01:28:45;;;;;;;4.55;2.85;;;15.30;99.90;;;;;;5033197;28;20099;-66
2023/07/22 01:31:11;;;;;;;3.67;2.60;;;15.20;99.90;;;;;;5032709;28;20434;-66
2023/07/22 01:33:37;;;;;;;4.00;2.58;;;15.10;99.90;;;;;;5034201;28;20029;-66
2023/07/22 01:36:03;;;;;;;4.78;2.90;;;15.00;99.90;;;;;;5031594;28;20029;-66
2023/07/22 01:38:31;;;;;;;3.88;2.70;;;15.00;99.90;;;;;;5032701;28;20032;-66
2023/07/22 01:40:56;;;;;;;6.40;2.95;;;15.00;99.90;;;;;;5031051;28;20018;-67
2023/07/22 01:43:22;;;;;;;4.97;3.28;;;15.00;99.90;;;;;;5030672;28;20076;-66
2023/07/22 01:45:48;;;;;;;3.88;2.70;;;15.00;99.90;;;;;;5030740;28;20050;-66
2023/07/22 01:48:13;;;;;;;4.57;3.00;;;15.00;99.90;;;;;;5030752;28;20029;-66
2023/07/22 01:50:39;;;;;;;6.15;2.75;;;15.00;99.90;;;;;;5031819;28;20393;-66
2023/07/22 01:53:05;;;;;;;4.03;2.67;;;15.00;99.90;;;;;;5032737;28;20032;-66
2023/07/22 01:55:32;;;;;;;4.93;3.03;;;15.00;99.90;;;;;;5035999;28;20485;-66
2023/07/22 01:57:58;;;;;;;4.00;2.80;;;15.10;99.90;;;;;;5036426;28;20037;-66
2023/07/22 02:00:24;;;;;;;4.85;2.90;;;15.10;99.90;;;;;;5034907;28;20036;-66
2023/07/22 02:02:49;;;;;;;7.45;4.68;;;15.00;99.90;;;;;;5046209;28;20029;-66
2023/07/22 02:05:15;;;;;;;6.65;5.00;;;15.00;99.90;;;;;;5055998;28;20063;-66
2023/07/22 02:07:41;;;;;;;6.38;5.00;;;15.00;99.90;;;;;;5056122;28;20029;-66
2023/07/22 02:10:08;;;;;;;6.18;4.78;;;15.00;99.90;;;;;;5056411;28;20481;-66
2023/07/22 02:12:33;;;;;;;5.63;3.50;;;15.00;99.90;;;;;;5055815;28;20033;-66
2023/07/22 02:14:59;;;;;;;6.32;3.45;;;15.00;99.90;;;;;;5055823;28;20440;-66
2023/07/22 02:17:25;;;;;;;4.85;3.10;;;15.00;99.90;;;;;;5055724;28;20524;-66
2023/07/22 02:19:50;;;;;;;5.85;3.20;;;15.00;99.90;;;;;;5055963;28;20033;-66
2023/07/22 02:22:16;;;;;;;5.38;2.95;;;15.10;99.90;;;;;;5055611;28;20029;-66
2023/07/22 02:24:41;;;;;;;4.28;3.00;;;15.10;99.90;;;;;;5055664;28;20037;-66
2023/07/22 02:27:10;;;;;;;5.03;3.10;;;15.10;99.90;;;;;;5055566;28;20481;-66
2023/07/22 02:29:36;;;;;;;4.88;3.20;;;15.10;99.90;;;;;;5054259;28;20477;-66
2023/07/22 02:32:02;;;;;;;3.53;2.70;;;15.10;99.90;;;;;;5055453;28;20032;-66
2023/07/22 02:34:28;;;;;;;5.53;2.80;;;15.00;99.90;;;;;;5054190;28;20032;-66
2023/07/22 02:36:53;;;;;;;4.38;2.78;;;15.10;99.90;;;;;;5040416;28;20037;-66
2023/07/22 02:39:19;;;;;;;5.68;3.20;;;15.10;99.90;;;;;;5020472;28;20489;-66
2023/07/22 02:41:45;;;;;;;6.85;2.45;;;15.10;99.90;;;;;;5032920;28;20743;-66
2023/07/22 02:44:11;;;;;;;4.30;2.80;;;15.00;99.90;;;;;;5026589;28;20029;-66
2023/07/22 02:46:38;;;;;;;5.03;2.70;;;15.00;99.90;;;;;;5015619;28;20033;-66
2023/07/22 02:49:03;;;;;;;4.53;2.90;;;15.00;99.90;;;;;;5027642;28;20370;-66
2023/07/22 02:51:29;;;;;;;4.40;3.08;;;14.90;99.90;;;;;;5035400;28;20497;-66
2023/07/22 02:53:54;;;;;;;3.75;2.78;;;14.80;99.90;;;;;;5035709;28;20482;-66
2023/07/22 02:56:23;;;;;;;7.35;3.13;;;14.80;99.90;;;;;;5016734;28;20037;-66
2023/07/22 02:58:50;;;;;;;5.72;3.33;;;14.80;99.90;;;;;;5018591;28;20034;-66
2023/07/22 03:01:16;;;;;;;5.03;2.97;;;14.70;99.90;;;;;;5029378;28;20029;-66
2023/07/22 03:03:41;;;;;;;5.00;2.55;;;14.70;99.90;;;;;;5034016;28;20044;-66
2023/07/22 03:06:09;;;;;;;5.18;2.72;;;14.80;99.90;;;;;;5014635;28;20451;-66
2023/07/22 03:08:35;;;;;;;5.10;3.20;;;14.80;99.90;;;;;;5015672;28;20030;-66
2023/07/22 03:11:00;;;;;;;4.10;2.90;;;14.90;99.90;;;;;;5014874;28;20084;-67
2023/07/22 03:13:29;;;;;;;5.90;3.05;;;14.90;99.90;;;;;;5025459;28;20033;-67
2023/07/22 03:15:56;;;;;;;5.80;2.95;;;15.00;99.90;;;;;;5033528;28;20494;-67
2023/07/22 03:18:22;;;;;;;5.55;3.58;;;15.00;99.90;;;;;;5034935;28;20030;-67
2023/07/22 03:20:48;;;;;;;5.93;3.35;;;15.00;99.90;;;;;;5034612;28;20017;-66
2023/07/22 03:23:14;;;;;;;5.00;3.10;;;14.90;99.90;;;;;;5034599;28;20152;-67
2023/07/22 03:25:41;;;;;;;4.68;3.00;;;14.80;99.90;;;;;;5034558;28;20446;-67
2023/07/22 03:28:07;;;;;;;4.80;3.08;;;14.80;99.90;;;;;;5034920;28;20413;-66
2023/07/22 03:30:33;;;;;;;4.07;2.80;;;14.70;99.90;;;;;;5034956;28;20087;-67
2023/07/22 03:33:00;;;;;;;4.30;2.40;;;14.70;99.90;;;;;;5034609;28;20100;-66
2023/07/22 03:35:27;;;;;;;4.53;3.10;;;14.70;99.90;;;;;;5034553;28;20022;-67
2023/07/22 03:37:53;;;;;;;6.45;3.40;;;14.80;99.90;;;;;;5032531;28;20037;-67
2023/07/22 03:40:26;;;;;;;4.50;3.00;;;14.80;99.90;;;;;;5037299;28;20062;-67
2023/07/22 03:42:54;;;;;;;8.50;3.17;;;14.80;99.90;;;;;;5033428;28;20030;-67
2023/07/22 03:45:21;;;;;;;4.45;3.10;;;14.80;99.90;;;;;;5034192;28;20481;-67
2023/07/22 03:47:49;;;;;;;5.53;3.40;;;14.90;99.90;;;;;;5034319;28;20057;-67
2023/07/22 03:50:15;;;;;;;4.90;2.88;;;14.90;99.90;;;;;;5034088;28;20034;-67
2023/07/22 03:52:41;;;;;;;5.25;3.15;;;14.90;99.90;;;;;;5034749;28;20120;-66
2023/07/22 03:55:07;;;;;;;6.38;3.10;;;15.00;99.90;;;;;;5034064;28;20033;-66
2023/07/22 03:57:32;;;;;;;7.13;3.72;;;15.00;99.90;;;;;;5034013;28;20033;-66
2023/07/22 03:59:58;;;;;;;8.10;3.10;;;15.00;99.90;;;;;;5033811;28;20041;-66
2023/07/22 04:02:24;;;;;;;4.13;2.70;;;15.00;99.90;;;;;;5033786;28;20474;-66
2023/07/22 04:04:55;;;;;;;6.40;2.58;;;15.00;99.90;;;;;;5033834;28;20120;-66
2023/07/22 04:07:21;;;;;;;4.45;2.92;;;15.00;99.90;;;;;;5033693;28;20096;-66
2023/07/22 04:09:48;;;;;;;4.78;2.80;;;15.10;99.90;;;;;;5033620;28;20118;-66
2023/07/22 04:12:13;;;;;;;4.85;2.80;;;15.10;99.90;;;;;;5034096;28;20024;-66
2023/07/22 04:14:40;;;;;;;4.43;2.90;;;15.10;99.90;;;;;;5053320;28;20059;-66
2023/07/22 04:17:05;;;;;;;4.05;2.85;;;15.10;99.90;;;;;;5052626;28;20061;-66
2023/07/22 04:19:31;;;;;;;6.15;2.90;;;15.10;99.90;;;;;;5053552;28;20064;-66
2023/07/22 04:21:57;;;;;;;4.63;2.70;;;15.10;99.90;;;;;;5053437;28;20366;-66
2023/07/22 04:24:24;;;;;;;5.53;2.90;;;15.20;99.90;;;;;;5053389;28;20021;-66
2023/07/22 04:26:51;;;;;;;4.30;2.60;;;15.20;99.90;;;;;;5052247;28;20488;-66
2023/07/22 04:29:17;;;;;;;5.15;2.60;;;15.20;99.90;;;;;;5049500;28;20545;-66
2023/07/22 04:31:42;;;;;;;4.15;2.63;;;15.20;99.90;;;;;;5033367;28;20116;-66
2023/07/22 04:34:09;;;;;;;4.63;2.80;;;15.20;99.90;;;;;;5033333;28;20525;-66
2023/07/22 04:36:36;;;;;;;4.80;2.67;;;15.20;99.90;;;;;;5033561;28;20022;-66
2023/07/22 04:39:04;;;;;;;6.18;2.88;;;15.10;99.90;;;;;;5033303;28;20029;-66
2023/07/22 04:41:30;;;;;;;5.68;2.60;;;15.10;99.90;;;;;;5033559;28;20025;-66
2023/07/22 04:43:58;;;;;;;3.95;2.35;;;15.10;99.90;;;;;;5033613;28;20026;-66
2023/07/22 04:46:24;;;;;;;6.28;2.80;;;15.00;99.90;;;;;;5052458;28;20029;-67
2023/07/22 04:48:49;;;;;;;7.28;3.42;;;15.00;99.90;;;;;;5053247;28;20516;-67
2023/07/22 04:51:15;;;;;;;7.35;2.88;;;15.00;99.90;;;;;;5053211;28;20033;-70
2023/07/22 04:53:41;;;;;;;4.63;2.75;;;14.90;99.90;;;;;;5053415;28;20171;-66
2023/07/22 04:56:06;;;;;;;7.05;3.03;;;14.80;99.90;;;;;;5053142;28;20099;-66
2023/07/22 04:58:32;;;;;;;6.78;3.00;;;14.90;99.90;;;;;;5053030;28;20037;-66
2023/07/22 05:00:58;;;;;;;4.53;2.80;;;14.80;99.90;;;;;;5053181;28;20025;-66
2023/07/22 05:03:26;;;;;;;4.30;2.78;;;14.90;99.90;;;;;;5053089;28;20032;-66
2023/07/22 05:05:52;;;;;;;4.75;2.80;;;14.90;99.90;;;;;;5053722;28;20423;-66
2023/07/22 05:08:18;;;;;;;4.63;2.67;;;14.90;99.90;;;;;;5052957;28;20481;-66
2023/07/22 05:10:43;;;;;;;4.88;2.88;;;15.00;99.90;;;;;;5052825;28;20033;-66
2023/07/22 05:13:09;;;;;;;5.63;2.70;;;15.10;99.90;;;;;;5052814;28;20040;-66
2023/07/22 05:15:34;;;;;;;4.32;2.55;;;15.20;99.90;;;;;;5052871;28;20048;-66
2023/07/22 05:18:00;;;;;;;4.03;2.47;;;15.20;99.90;;;;;;5053057;28;20106;-66
2023/07/22 05:20:26;;;;;;;5.30;2.85;;;15.20;99.90;;;;;;5052977;28;20424;-66
2023/07/22 05:22:52;;;;;;;4.40;2.70;;;15.20;99.90;;;;;;5052886;28;20017;-66
2023/07/22 05:25:17;;;;;;;5.40;2.60;;;15.20;99.90;;;;;;5053044;28;20025;-66
2023/07/22 05:27:43;;;;;;;4.70;2.65;;;15.20;99.90;;;;;;5053596;28;20116;-66
2023/07/22 05:30:09;;;;;;;4.28;2.53;;;15.20;99.90;;;;;;5045449;28;20152;-66
2023/07/22 05:32:35;;;;;;;4.75;2.72;;;15.30;99.90;;;;;;5036771;28;20033;-66
2023/07/22 05:38:23;;;;;;;4.18;2.55;;;15.30;99.90;;;;;;5035988;28;20129;-66
2023/07/22 05:40:48;;;;;;;4.60;2.38;;;15.40;99.90;;;;;;5054074;28;20521;-66
2023/07/22 05:43:14;;;;;;;4.35;2.80;;;15.40;99.90;;;;;;5054565;28;20393;-66
2023/07/22 05:45:40;;;;;;;4.35;2.60;;;15.50;99.90;;;;;;5055736;28;20029;-66
2023/07/22 05:48:05;;;;;;;4.47;2.80;;;15.60;99.90;;;;;;5056184;28;20025;-66
2023/07/22 05:50:31;;;;;;;6.15;2.53;;;15.60;99.90;;;;;;5055354;28;20120;-66
2023/07/22 05:52:57;;;;;;;4.53;2.70;;;15.70;99.90;;;;;;5055705;28;20021;-66
2023/07/22 05:55:22;;;;;;;4.00;2.10;;;15.70;99.90;;;;;;5056217;28;20025;-66
2023/07/22 05:57:48;;;;;;;3.88;2.40;;;15.70;99.90;;;;;;5056226;28;20032;-66
2023/07/22 06:00:14;;;;;;;4.60;2.53;;;15.70;99.90;;;;;;5056309;28;20029;-66
2023/07/22 06:02:40;;;;;;;3.53;2.10;;;15.70;99.90;;;;;;5056291;28;20036;-66
2023/07/22 06:05:06;;;;;;;4.40;2.58;;;15.80;99.90;;;;;;5056061;28;20029;-66
2023/07/22 06:07:32;;;;;;;4.38;2.95;;;15.80;99.90;;;;;;5055951;28;20025;-66
2023/07/22 06:09:58;;;;;;;4.38;2.70;;;15.90;99.90;;;;;;5056190;28;20565;-66
2023/07/22 06:12:23;;;;;;;5.55;2.80;;;15.90;99.90;;;;;;5055731;28;20115;-66
2023/07/22 06:14:50;;;;;;;6.43;3.75;;;16.00;99.90;;;;;;5055835;28;20112;-66
2023/07/22 06:17:15;;;;;;;6.80;4.07;;;16.10;99.90;;;;;;5054771;28;20045;-66
2023/07/22 06:19:41;;;;;;;7.55;4.57;;;16.20;99.90;;;;;;5054835;28;20051;-66
2023/07/22 06:22:06;;;;;;;6.80;4.40;;;16.30;99.90;;;;;;5055833;28;20044;-66
2023/07/22 06:24:32;;;;;;;7.13;4.45;;;16.30;99.90;;;;;;5055687;28;20025;-66
2023/07/22 06:26:58;;;;;;;10.43;5.20;;;16.40;99.90;;;;;;5055696;28;20033;-66
2023/07/22 06:29:23;;;;;;;7.57;5.18;;;16.40;99.90;;;;;;5055866;28;20393;-66
2023/07/22 06:31:49;;;;;;;6.03;4.25;;;16.40;99.90;;;;;;5055393;28;20025;-66
2023/07/22 06:34:14;;;;;;;9.52;5.95;;;16.40;99.90;;;;;;5055423;28;20052;-66
2023/07/22 06:36:40;;;;;;;7.60;5.38;;;16.50;99.90;;;;;;5055440;28;20025;-66
2023/07/22 06:39:06;;;;;;;7.40;4.90;;;16.50;99.90;;;;;;5054795;28;20033;-66
2023/07/22 06:41:31;;;;;;;7.47;5.50;;;16.60;99.90;;;;;;5055100;28;20405;-66
2023/07/22 06:43:57;;;;;;;10.98;8.18;;;16.60;99.90;;;;;;5054317;28;20595;-66
2023/07/22 06:46:22;;;;;;;8.27;6.18;;;16.70;99.90;;;;;;5055108;28;20029;-66
2023/07/22 06:48:48;;;;;;;12.82;8.60;;;16.80;99.90;;;;;;5055249;28;20033;-66
2023/07/22 06:51:14;;;;;;;13.65;8.18;;;16.80;99.90;;;;;;5055259;28;20443;-66
2023/07/22 06:53:39;;;;;;;12.00;7.15;;;16.80;99.90;;;;;;5055028;28;20469;-66
2023/07/22 06:56:05;;;;;;;8.48;6.13;;;16.90;99.90;;;;;;5055167;28;20026;-66
2023/07/22 06:58:30;;;;;;;9.85;6.03;;;16.80;99.90;;;;;;5055006;28;20032;-66
2023/07/22 07:00:56;;;;;;;8.68;6.15;;;16.90;99.90;;;;;;5055001;28;20032;-66
2023/07/22 07:03:22;;;;;;;8.48;6.15;;;17.00;99.90;;;;;;5054923;28;20026;-66
2023/07/22 07:05:57;;;;;;;8.60;5.53;;;17.00;99.90;;;;;;5055509;28;20104;-66
2023/07/22 07:08:24;;;;;;;7.40;5.13;;;17.00;99.90;;;;;;5054968;28;20025;-66
2023/07/22 07:10:50;;;;;;;7.32;4.95;;;17.00;99.90;;;;;;5054815;28;20055;-66
2023/07/22 07:13:16;;;;;;;8.57;5.43;;;17.00;99.90;;;;;;5055020;28;20021;-66
2023/07/22 07:15:48;;;;;;;7.40;5.30;;;17.10;99.90;;;;;;5054728;28;20483;-67
2023/07/22 07:18:14;;;;;;;9.68;5.80;;;17.20;99.90;;;;;;5054730;28;20037;-66
2023/07/22 07:20:40;;;;;;;7.53;4.63;;;17.20;99.90;;;;;;5055211;28;20029;-66
2023/07/22 07:23:06;;;;;;;7.60;4.50;;;17.30;99.90;;;;;;5054496;28;20032;-66
2023/07/22 07:25:31;;;;;;;8.25;4.95;;;17.40;99.90;;;;;;5054543;28;20052;-66
2023/07/22 07:27:57;;;;;;;6.18;4.03;;;17.50;99.90;;;;;;5054501;28;20052;-66
2023/07/22 07:30:23;;;;;;;7.43;4.25;;;17.60;99.90;;;;;;5054716;28;20111;-66
2023/07/22 07:32:48;;;;;;;6.53;4.20;;;17.70;99.90;;;;;;5054621;28;20489;-67
2023/07/22 07:35:14;;;;;;;7.97;5.30;;;17.70;99.90;;;;;;5053134;28;20029;-66
2023/07/22 07:37:39;;;;;;;6.10;3.80;;;17.70;99.90;;;;;;5054276;28;20032;-66
2023/07/22 07:40:06;;;;;;;7.35;4.90;;;17.70;99.90;;;;;;5054038;28;20366;-66
2023/07/22 07:42:32;;;;;;;7.13;4.68;;;17.70;99.90;;;;;;5054093;28;20025;-66
2023/07/22 07:44:57;;;;;;;6.78;4.57;;;17.70;99.90;;;;;;5040967;28;20076;-66
2023/07/22 07:47:23;;;;;;;7.18;4.88;;;17.80;99.90;;;;;;5032381;28;20022;-66
2023/07/22 07:49:49;;;;;;;7.40;4.47;;;17.80;99.90;;;;;;5032971;28;20029;-67
2023/07/22 07:52:14;;;;;;;6.60;4.65;;;17.80;99.90;;;;;;5034266;28;20481;-66
2023/07/22 07:54:40;;;;;;;6.78;4.38;;;17.90;99.90;;;;;;5034040;28;20452;-66
2023/07/22 07:57:06;;;;;;;7.78;4.55;;;17.90;99.90;;;;;;5034282;28;20026;-66
2023/07/22 07:59:31;;;;;;;6.82;4.18;;;18.00;99.90;;;;;;5033911;28;20041;-66
2023/07/22 08:01:57;;;;;;;6.80;4.28;;;18.00;99.90;;;;;;5033926;28;20393;-66
2023/07/22 08:04:23;;;;;;;6.72;4.10;;;18.10;99.90;;;;;;5034101;28;20021;-66
2023/07/22 08:06:49;;;;;;;6.00;4.13;;;18.10;99.90;;;;;;5034437;28;20028;-66
2023/07/22 08:09:19;;;;;;;6.38;4.30;;;18.20;99.90;;;;;;5032556;28;20553;-67
2023/07/22 08:11:45;;;;;;;6.00;3.95;;;18.20;99.90;;;;;;5033999;28;20517;-67
2023/07/22 08:14:11;;;;;;;6.80;4.18;;;18.20;99.90;;;;;;5033713;28;20107;-67
2023/07/22 08:16:37;;;;;;;7.40;3.75;;;18.30;99.90;;;;;;5033583;28;20080;-66
2023/07/22 08:19:04;;;;;;;6.07;3.92;;;18.30;99.90;;;;;;5032422;28;20037;-67
2023/07/22 08:21:30;;;;;;;6.45;3.70;;;18.20;99.90;;;;;;5028021;28;20046;-66
2023/07/22 08:23:57;;;;;;;6.25;4.13;;;18.20;99.90;;;;;;5014367;28;20442;-67
2023/07/22 08:26:23;;;;;;;5.20;3.70;;;18.30;99.90;;;;;;5013876;28;20026;-66
2023/07/22 08:28:48;;;;;;;5.45;3.22;;;18.40;99.90;;;;;;5012704;28;20040;-66
2023/07/22 08:31:14;;;;;;;6.15;3.13;;;18.40;99.90;;;;;;5013836;28;20029;-67
2023/07/22 08:33:39;;;;;;;6.63;3.50;;;18.50;99.90;;;;;;5013716;28;20084;-67
2023/07/22 08:36:05;;;;;;;6.25;3.40;;;18.60;99.90;;;;;;5013921;28;20030;-66
2023/07/22 08:38:31;;;;;;;7.18;3.83;;;18.60;99.90;;;;;;5014846;28;20076;-66
2023/07/22 08:40:57;;;;;;;4.70;3.40;;;18.80;99.90;;;;;;5033612;28;20113;-67
2023/07/22 08:43:23;;;;;;;5.93;3.50;;;19.00;99.90;;;;;;5015802;28;20544;-68
2023/07/22 08:45:50;;;;;;;13.80;3.75;;;19.10;99.90;;;;;;5025592;28;20021;-66
2023/07/22 08:48:18;;;;;;;6.22;3.63;;;19.20;99.90;;;;;;5052429;28;20100;-66
2023/07/22 08:50:49;;;;;;;5.78;3.38;;;19.30;99.90;;;;;;5051706;28;20080;-66
2023/07/22 08:53:15;;;;;;;4.90;3.33;;;19.40;99.90;;;;;;5052551;28;20032;-66
2023/07/22 08:55:42;;;;;;;4.60;2.97;;;19.40;99.90;;;;;;5052656;28;20021;-66
2023/07/22 08:58:09;;;;;;;4.95;3.20;;;19.50;99.90;;;;;;5051891;28;20541;-66
2023/07/22 09:00:35;;;;;;;5.38;3.22;;;19.60;99.90;;;;;;5053144;28;20037;-66
2023/07/22 09:03:02;;;;;;;5.25;3.42;;;19.60;99.90;;;;;;5054821;28;20028;-66
2023/07/22 09:05:28;;;;;;;4.82;3.20;;;19.60;99.90;;;;;;5057222;28;20025;-66
2023/07/22 09:07:56;;;;;;;4.88;3.03;;;19.70;99.90;;;;;;5056536;28;20078;-66
2023/07/22 09:10:24;;;;;;;5.80;2.97;;;19.70;99.90;;;;;;5055441;28;20473;-66
2023/07/22 09:12:51;;;;;;;5.10;2.72;;;19.80;99.90;;;;;;5056045;28;20503;-66
2023/07/22 09:15:17;;;;;;;3.83;2.72;;;19.90;99.90;;;;;;5055856;28;20110;-66
2023/07/22 09:17:44;;;;;;;4.70;2.95;;;19.90;99.90;;;;;;5054526;28;20033;-66
2023/07/22 09:20:14;;;;;;;3.60;2.60;;;19.90;99.90;;;;;;5054370;28;20131;-66
2023/07/22 09:22:43;;;;;;;3.65;2.42;;;19.90;99.90;;;;;;5056111;28;20385;-66
2023/07/22 09:25:20;;;;;;;4.50;2.65;;;20.00;99.90;;;;;;5057062;28;20043;-66
2023/07/22 09:27:53;;;;;;;5.93;3.15;;;20.10;99.90;;;;;;5056790;28;20025;-66
2023/07/22 09:30:31;;;;;;;4.80;2.80;;;20.10;99.90;;;;;;5055618;28;20037;-66
2023/07/22 09:33:02;;;;;;;4.25;2.60;;;20.30;99.90;;;;;;5056961;28;20036;-66
2023/07/22 09:35:30;;;;;;;4.20;2.65;;;20.20;99.90;;;;;;5056790;28;20473;-66
2023/07/22 09:37:56;;;;;;;4.55;2.50;;;20.20;99.90;;;;;;5056618;28;20025;-66
2023/07/22 09:40:24;;;;;;;4.63;2.35;;;20.20;99.90;;;;;;5056511;28;20362;-66
2023/07/22 09:42:52;;;;;;;4.25;2.72;;;20.30;99.90;;;;;;5056446;28;20035;-66
2023/07/22 09:45:31;;;;;;;4.00;2.83;;;20.30;99.90;;;;;;5056481;28;20017;-66
2023/07/22 09:47:58;;;;;;;3.78;2.67;;;20.30;99.90;;;;;;5056438;28;20036;-66
2023/07/22 09:50:25;;;;;;;3.30;2.20;;;20.40;99.90;;;;;;5056358;28;20033;-66
2023/07/22 09:52:59;;;;;;;4.43;2.53;;;20.40;99.90;;;;;;5056894;28;20021;-66
2023/07/22 09:55:29;;;;;;;3.92;2.55;;;20.40;99.90;;;;;;5056308;28;20489;-66
2023/07/22 09:57:58;;;;;;;4.55;2.50;;;20.50;99.90;;;;;;5056318;28;20036;-66
2023/07/22 10:00:27;;;;;;;3.92;2.50;;;20.50;99.90;;;;;;5054781;28;20037;-66
2023/07/22 10:02:59;;;;;;;4.18;2.05;;;20.50;99.90;;;;;;5056055;28;20432;-66
2023/07/22 10:05:26;;;;;;;3.60;2.25;;;20.60;99.90;;;;;;5056410;28;20104;-66
2023/07/22 10:07:54;;;;;;;4.20;2.10;;;20.50;99.90;;;;;;5056028;28;20024;-66
2023/07/22 10:10:24;;;;;;;3.58;2.28;;;20.50;99.90;;;;;;5056016;28;20029;-66
2023/07/22 10:12:49;;;;;;;3.88;2.50;;;20.70;99.90;;;;;;5055931;28;20040;-66
2023/07/22 10:15:17;;;;;;;4.55;2.35;;;20.90;99.90;;;;;;5054840;28;20025;-66
2023/07/22 10:17:44;;;;;;;4.60;2.28;;;21.10;99.90;;;;;;5056504;28;20033;-66
2023/07/22 10:20:16;;;;;;;5.13;2.80;;;21.20;99.90;;;;;;5055695;28;20033;-66
2023/07/22 10:22:45;;;;;;;4.57;2.15;;;21.30;99.90;;;;;;5055980;28;20126;-66
2023/07/22 10:25:19;;;;;;;5.72;2.30;;;21.40;99.90;;;;;;5055739;28;20108;-66
2023/07/22 10:27:46;;;;;;;3.45;2.30;;;21.40;99.90;;;;;;5055673;28;20029;-66
2023/07/22 10:30:13;;;;;;;5.03;2.38;;;21.40;99.90;;;;;;5055645;28;20029;-66
2023/07/22 10:32:47;;;;;;;3.95;2.42;;;21.40;99.90;;;;;;5055516;28;20029;-66
2023/07/22 10:35:34;;;;;;;4.45;2.55;;;21.50;99.90;;;;;;5056075;28;20155;-66
2023/07/22 10:38:08;;;;;;;3.85;2.30;;;21.60;99.90;;;;;;5056063;28;20029;-66
2023/07/22 10:40:49;;;;;;;3.42;2.08;;;21.70;99.90;;;;;;5055363;28;20385;-66
2023/07/22 10:43:19;;;;;;;4.97;2.30;;;21.90;99.90;;;;;;5055451;28;20028;-66
2023/07/22 10:45:58;;;;;;;3.97;2.33;;;22.10;99.90;;;;;;5055624;28;20511;-66
2023/07/22 10:48:35;;;;;;;5.72;2.38;;;22.40;99.90;;;;;;5055634;28;20033;-66
2023/07/22 10:51:12;;;;;;;4.18;2.35;;;22.70;99.90;;;;;;5055723;28;20021;-66
2023/07/22 10:53:43;;;;;;;3.92;2.50;;;22.80;99.90;;;;;;5055210;28;20032;-66
2023/07/22 10:56:19;;;;;;;3.60;2.13;;;22.70;99.90;;;;;;5055167;28;20037;-66
2023/07/22 10:58:44;;;;;;;4.55;2.10;;;22.60;99.90;;;;;;5055025;28;20025;-66
2023/07/22 11:01:34;;;;;;;5.30;2.42;;;22.50;99.90;;;;;;5055202;28;20075;-66
2023/07/22 11:04:12;;;;;;;3.70;2.30;;;22.40;99.90;;;;;;5054952;28;20021;-66
2023/07/22 11:06:59;;;;;;;3.70;2.25;;;22.20;99.90;;;;;;5055264;28;20047;-66
2023/07/22 11:09:33;;;;;;;4.03;2.78;;;22.30;99.90;;;;;;5055166;28;20057;-66
2023/07/22 11:12:02;;;;;;;4.72;1.95;;;22.20;99.90;;;;;;5055104;28;20028;-66
2023/07/22 11:14:29;;;;;;;3.67;2.30;;;22.10;99.90;;;;;;5053519;28;20031;-66
2023/07/22 11:16:58;;;;;;;4.90;2.70;;;21.90;99.90;;;;;;5054679;28;20032;-66
2023/07/22 11:19:25;;;;;;;5.38;2.35;;;21.80;99.90;;;;;;5054657;28;20029;-66
2023/07/22 11:21:52;;;;;;;4.78;2.67;;;21.60;99.90;;;;;;5054573;28;20473;-66
2023/07/22 11:24:18;;;;;;;3.78;2.33;;;21.50;99.90;;;;;;5054859;28;20060;-66
2023/07/22 11:26:48;;;;;;;3.53;2.17;;;21.40;99.90;;;;;;5054563;28;20473;-66
2023/07/22 11:29:15;;;;;;;4.20;2.42;;;21.30;99.90;;;;;;5054530;28;20076;-66
2023/07/22 11:31:46;;;;;;;5.05;2.10;;;21.30;99.90;;;;;;5054337;28;20074;-66
2023/07/22 11:34:13;;;;;;;4.07;2.67;;;21.40;99.90;;;;;;5053142;28;20025;-66
2023/07/22 11:36:39;;;;;;;4.43;2.28;;;21.50;99.90;;;;;;5054676;28;20059;-66
2023/07/22 11:39:07;;;;;;;4.13;2.10;;;21.60;99.90;;;;;;5054976;28;20117;-66
2023/07/22 11:41:34;;;;;;;6.13;2.40;;;21.70;99.90;;;;;;5054542;28;20381;-66
2023/07/22 11:44:01;;;;;;;4.57;2.40;;;21.70;99.90;;;;;;5052941;28;20139;-66
2023/07/22 11:46:28;;;;;;;4.05;2.78;;;21.60;99.90;;;;;;5054174;28;20031;-66
2023/07/22 11:48:55;;;;;;;5.35;2.78;;;21.50;99.90;;;;;;5054130;28;20044;-66
2023/07/22 11:51:22;;;;;;;4.75;2.47;;;21.30;99.90;;;;;;5054084;28;20032;-66
2023/07/22 11:53:50;;;;;;;5.32;2.33;;;21.10;99.90;;;;;;5054033;28;20159;-66
2023/07/22 11:56:23;;;;;;;4.47;2.42;;;20.90;99.90;;;;;;5054022;28;20025;-66
2023/07/22 11:58:53;;;;;;;5.35;2.25;;;20.80;99.90;;;;;;5054133;28;20436;-66
2023/07/22 12:01:20;;;;;;;6.28;2.65;;;20.70;99.90;;;;;;5054246;28;20094;-66
2023/07/22 12:03:46;;;;;;;3.85;2.38;;;20.50;99.90;;;;;;5053876;28;20469;-66
2023/07/22 12:06:12;;;;;;;5.18;2.97;;;20.50;99.90;;;;;;5053851;28;20025;-66
2023/07/22 12:08:49;;;;;;;3.22;2.33;;;20.60;99.90;;;;;;5053776;28;20029;-66
2023/07/22 12:11:22;;;;;;;4.57;2.30;;;20.60;99.90;;;;;;5054065;28;20033;-66
2023/07/22 12:14:09;;;;;;;4.43;2.33;;;20.60;99.90;;;;;;5053571;28;20028;-66
2023/07/22 12:16:36;;;;;;;3.95;2.60;;;20.60;99.90;;;;;;5053223;28;20128;-66
2023/07/22 12:19:02;;;;;;;3.65;2.70;;;20.60;99.90;;;;;;5053523;28;20025;-66
2023/07/22 12:21:28;;;;;;;3.63;2.45;;;20.60;99.90;;;;;;5053892;28;20041;-66
2023/07/22 12:23:54;;;;;;;4.47;2.35;;;20.60;99.90;;;;;;5053575;28;20106;-66
2023/07/22 12:26:20;;;;;;;3.38;2.40;;;20.60;99.90;;;;;;5054099;28;20021;-66
2023/07/22 12:28:46;;;;;;;4.00;2.42;;;20.60;99.90;;;;;;5053814;28;20075;-66
2023/07/22 12:31:12;;;;;;;3.47;2.00;;;20.70;99.90;;;;;;5053486;28;20033;-66
2023/07/22 12:33:37;;;;;;;3.75;2.40;;;20.70;99.90;;;;;;5053427;28;20025;-66
2023/07/22 12:36:03;;;;;;;4.38;2.65;;;20.60;99.90;;;;;;5053504;28;20040;-66
2023/07/22 12:38:30;;;;;;;3.63;1.95;;;20.50;99.90;;;;;;5052959;28;20051;-66
2023/07/22 12:40:56;;;;;;;4.07;2.70;;;20.50;99.90;;;;;;5052231;28;20396;-66
2023/07/22 12:43:22;;;;;;;3.40;2.05;;;20.40;99.90;;;;;;5053292;28;20026;-66
2023/07/22 12:45:47;;;;;;;4.13;2.47;;;20.40;99.90;;;;;;5053305;28;20022;-66
2023/07/22 12:48:13;;;;;;;7.30;2.90;;;20.30;99.90;;;;;;5053357;28;20040;-66